Regional Weather

 

KCRX - Corinth, Mississippi, USA
Distance from station: SW 29mi, 47km
Updated: Tue, 19-Nov-2019 3:35am CST
Overcast
Overcast
 Wind from SSE
Wind: SSE 7 mph , 11 km/h
Temperature: 45°F , 7°C
Wind Chill: 41°F , 5°C
Dew Point: 41°F , 5°C
Humidity: 87%
Barometer: 29.81 inHg , 1009.5 hPa
Clouds: Overcast
Visibility: 10 miles , 16 km
Cloud details: Mostly cloudy 6000 ft
Mostly cloudy 7000 ft
Overcast 9000 ft
2019/11/19 09:35 KCRX 190935Z AUTO 16006KT 10SM BKN060 BKN070 OVC090 07/05 A2981 RMK AO2
KMKL - Jackson, Tennessee, USA
Distance from station: NW 46mi, 73km
Updated: Tue, 19-Nov-2019 2:53am CST
Overcast
Overcast
 Wind from SSW
Wind: SSW 6 mph , 9 km/h
Temperature: 46°F , 8°C
Wind Chill: 43°F , 6°C
Dew Point: 41°F , 5°C
Humidity: 82%
Barometer: 29.80 inHg , 1009.1 hPa
Clouds: Overcast
Visibility: 10 miles , 16 km
Cloud details: Overcast 6000 ft
2019/11/19 08:53 KMKL 190853Z AUTO 21005KT 10SM OVC060 08/05 A2980 RMK AO2 SLP092 60003 T00780050 56012 $
 
KMSL - Muscle Shoal, Alabama, USA
Distance from station: SE 49mi, 79km
Updated: Tue, 19-Nov-2019 2:53am CST
Overcast
Overcast
 Wind from calm
Wind: Calm
Temperature: 46°F , 8°C
Dew Point: 39°F , 4°C
Humidity: 76%
Barometer: 29.85 inHg , 1010.8 hPa
Clouds: Overcast
Visibility: 10 miles , 16 km
Cloud details: Mostly cloudy 6500 ft
Overcast 8000 ft
2019/11/19 08:53 KMSL 190853Z AUTO 00000KT 10SM BKN065 OVC080 08/04 A2985 RMK AO2 SLP106 T00780039 58008 $
KTUP - Tupelo, Mississippi, USA
Distance from station: SSW 72mi, 117km
Updated: Tue, 19-Nov-2019 2:53am CST
Overcast
Overcast
 Wind from S
Wind: S 7 mph , 11 km/h
Temperature: 46°F , 8°C
Wind Chill: 42°F , 6°C
Dew Point: 37°F , 3°C
Humidity: 71%
Barometer: 29.84 inHg , 1010.5 hPa
Clouds: Overcast
Visibility: 10 miles , 16 km
Cloud details: Overcast 7000 ft
2019/11/19 08:53 KTUP 190853Z AUTO 18006KT 10SM OVC070 08/03 A2984 RMK AO2 SLP104 T00830033 58013 $
 
KHSV - Huntsville, Alabama, USA
Distance from station: ESE 92mi, 148km
Updated: Tue, 19-Nov-2019 2:53am CST
Light rain, Overcast
Light rain, Overcast
 Wind from SE
Wind: SE 6 mph , 9 km/h
Temperature: 43°F , 6°C
Wind Chill: 39°F , 4°C
Dew Point: 37°F , 3°C
Humidity: 81%
Barometer: 29.85 inHg , 1010.8 hPa
Summary: Light rain
Clouds: Overcast
Visibility: 10 miles , 16 km
Cloud details: Overcast 7000 ft
2019/11/19 08:53 KHSV 190853Z AUTO 14005KT 10SM -RA OVC070 06/03 A2985 RMK AO2 RAB36 SLP107 P0000 60000 T00560033 58004 $
KBNA - Nashville, TN, USA
Distance from station: NE 97mi, 157km
Updated: Tue, 19-Nov-2019 2:53am CST
Light rain, Overcast
Light rain, Overcast
 Wind from S
Wind: S 5 mph , 7 km/h
Temperature: 43°F , 6°C
Wind Chill: 40°F , 4°C
Dew Point: 36°F , 2°C
Humidity: 76%
Barometer: 29.83 inHg , 1010.2 hPa
Summary: Light rain
Clouds: Overcast
Visibility: 9 miles , 14 km
Cloud details: Mostly cloudy 5000 ft
Overcast 6000 ft
2019/11/19 08:53 KBNA 190853Z 19004KT 9SM -RA BKN050 OVC060 06/02 A2983 RMK AO2 RAB41 SLP103 P0000 60000 T00610022 58004 $
 
KMEM - Memphis, Tennessee, USA
Distance from station: W 99mi, 159km
Updated: Tue, 19-Nov-2019 2:54am CST
Few Clouds
Few Clouds
 Wind from SSW
Wind: SSW 6 mph , 9 km/h
Temperature: 48°F , 9°C
Wind Chill: 45°F , 7°C
Dew Point: 39°F , 4°C
Humidity: 71%
Barometer: 29.78 inHg , 1008.5 hPa
Clouds: Few Clouds
Visibility: 10 miles , 16 km
Cloud details: Few Clouds 11000 ft
2019/11/19 08:54 KMEM 190854Z 21005KT 10SM FEW110 09/04 A2978 RMK AO2 SLP085 60000 T00890044 56016 $
KCKV - Clarksville, TN, USA
Distance from station: NNE 99mi, 159km
Updated: Tue, 19-Nov-2019 2:52am CST
Light rain, Overcast
Light rain, Overcast
 Wind from SSE
Wind: SSE 3 mph , 6 km/h
Temperature: 45°F , 7°C
Dew Point: 37°F , 3°C
Humidity: 76%
Barometer: 29.80 inHg , 1009.1 hPa
Summary: Light rain
Clouds: Overcast
Visibility: 10 miles , 16 km
Cloud details: Overcast 6000 ft
2019/11/19 08:52 KCKV 190852Z AUTO 16003KT 10SM -RA OVC060 07/03 A2980 RMK AO2 RAB21 SLP092 P0000 60000 T00670028 58009
 
KCHA - Chattanooga, TN, USA
Distance from station: E 165mi, 265km
Updated: Tue, 19-Nov-2019 2:53am CST
Mostly cloudy
Mostly cloudy
 Wind from calm
Wind: Calm
Temperature: 43°F , 6°C
Dew Point: 37°F , 3°C
Humidity: 81%
Barometer: 29.86 inHg , 1011.2 hPa
Clouds: Mostly cloudy
Visibility: 10 miles , 16 km
Cloud details: Mostly cloudy 10000 ft
2019/11/19 08:53 KCHA 190853Z 00000KT 10SM BKN100 06/03 A2986 RMK AO2 SLP110 T00610028 50008
KTYS - Knoxville, TN, USA
Distance from station: E 234mi, 377km
Updated: Tue, 19-Nov-2019 2:53am CST
Clear
Clear
 Wind from NW
Wind: NW 3 mph , 6 km/h
Temperature: 43°F , 6°C
Dew Point: 36°F , 2°C
Humidity: 76%
Barometer: 29.83 inHg , 1010.2 hPa
Clouds: Clear
Visibility: 10 miles , 16 km
2019/11/19 08:53 KTYS 190853Z 31003KT 10SM CLR 06/02 A2983 RMK AO2 SLP099 T00610022 53004

Refresh Page for latest data.